createdAt,value
2022-09-17T00:01:25.781Z,10.60
2022-09-17T00:05:26.945Z,10.50
2022-09-17T00:09:28.459Z,10.50
2022-09-17T00:13:29.384Z,10.40
2022-09-17T00:17:30.650Z,10.10
2022-09-17T00:21:32.154Z,10.10
2022-09-17T00:25:33.031Z,10.30
2022-09-17T00:29:34.307Z,10.30
2022-09-17T00:33:35.856Z,10.70
2022-09-17T00:37:36.714Z,10.30
2022-09-17T00:41:38.502Z,10.30
2022-09-17T00:45:40.186Z,10.60
2022-09-17T00:49:42.195Z,10.90
2022-09-17T00:53:43.180Z,11.40
2022-09-17T00:57:45.447Z,11.20
2022-09-17T01:01:46.601Z,10.60
2022-09-17T01:06:00.595Z,11.30
2022-09-17T01:10:14.012Z,11.00
2022-09-17T01:14:34.101Z,10.60
2022-09-17T01:18:47.349Z,11.20
2022-09-17T01:23:18.093Z,11.00
2022-09-17T01:27:54.866Z,11.00
2022-09-17T01:32:01.094Z,10.40
2022-09-17T01:36:21.461Z,10.70
2022-09-17T01:40:32.075Z,10.50
2022-09-17T01:44:45.730Z,10.40
2022-09-17T01:48:49.739Z,10.90
2022-09-17T01:52:54.586Z,10.20
2022-09-17T01:57:11.361Z,11.00
2022-09-17T02:01:15.567Z,10.80
2022-09-17T02:05:23.607Z,10.90
2022-09-17T02:09:28.843Z,11.10
2022-09-17T02:13:36.301Z,11.30
2022-09-17T02:17:52.954Z,10.50
2022-09-17T02:22:07.190Z,9.90
2022-09-17T02:26:11.771Z,10.30
2022-09-17T02:30:14.107Z,11.10
2022-09-17T02:34:21.649Z,10.90
2022-09-17T02:38:29.155Z,10.00
2022-09-17T02:42:39.969Z,10.10
2022-09-17T02:46:54.085Z,10.40
2022-09-17T02:50:58.860Z,10.20
2022-09-17T02:55:09.931Z,10.20
2022-09-17T02:59:37.274Z,9.80
2022-09-17T03:03:42.045Z,10.20
2022-09-17T03:07:43.114Z,10.10
2022-09-17T03:11:44.202Z,9.80
2022-09-17T03:15:45.243Z,10.30
2022-09-17T03:19:46.249Z,10.50
2022-09-17T03:23:47.249Z,10.40
2022-09-17T03:27:48.225Z,10.30
2022-09-17T03:31:49.217Z,9.70
2022-09-17T03:35:50.302Z,9.90
2022-09-17T03:39:51.356Z,10.30
2022-09-17T03:43:52.797Z,10.30
2022-09-17T03:47:53.752Z,9.80
2022-09-17T03:51:54.825Z,9.90
2022-09-17T03:55:59.001Z,10.90
2022-09-17T04:00:00.335Z,11.00
2022-09-17T04:04:03.129Z,10.70
2022-09-17T04:08:04.313Z,11.30
2022-09-17T04:12:05.604Z,10.60
2022-09-17T04:16:07.353Z,11.10
2022-09-17T04:20:10.786Z,11.00
2022-09-17T04:24:11.818Z,11.10
2022-09-17T04:28:12.888Z,10.00
2022-09-17T04:32:13.914Z,10.50
2022-09-17T04:36:14.963Z,10.70
2022-09-17T04:40:15.980Z,11.00
2022-09-17T04:44:17.291Z,11.10
2022-09-17T04:48:18.314Z,10.50
2022-09-17T04:52:19.394Z,9.90
2022-09-17T04:56:20.471Z,9.90
2022-09-17T05:00:22.822Z,10.50
2022-09-17T05:04:24.026Z,10.20
2022-09-17T05:08:25.152Z,10.60
2022-09-17T05:12:26.225Z,10.40
2022-09-17T05:16:27.240Z,10.50
2022-09-17T05:20:28.356Z,10.60
2022-09-17T05:24:29.449Z,9.90
2022-09-17T05:28:30.505Z,10.70
2022-09-17T05:32:31.559Z,10.90
2022-09-17T05:36:32.509Z,10.90
2022-09-17T05:40:33.515Z,10.60
2022-09-17T05:44:34.649Z,11.10
2022-09-17T05:48:35.521Z,11.00
2022-09-17T05:52:37.081Z,11.50
2022-09-17T05:56:38.070Z,10.90
2022-09-17T06:00:46.961Z,11.10
2022-09-17T06:04:48.021Z,10.90
2022-09-17T06:08:49.097Z,10.20
2022-09-17T06:12:55.493Z,10.70
2022-09-17T06:16:56.790Z,10.70
2022-09-17T06:20:59.927Z,10.80
2022-09-17T06:25:01.816Z,10.60
2022-09-17T06:29:02.883Z,10.70
2022-09-17T06:33:03.910Z,11.20
2022-09-17T06:37:05.801Z,11.10
2022-09-17T06:41:06.771Z,11.30
2022-09-17T06:45:12.113Z,11.70
2022-09-17T06:49:11.045Z,11.80
2022-09-17T06:53:12.022Z,11.80
2022-09-17T06:57:13.068Z,11.80
2022-09-17T07:01:14.387Z,12.60
2022-09-17T07:05:15.530Z,11.80
2022-09-17T07:09:16.510Z,12.40
2022-09-17T07:13:17.484Z,12.80
2022-09-17T07:17:18.591Z,12.70
2022-09-17T07:21:19.651Z,13.20
2022-09-17T07:25:20.711Z,12.60
2022-09-17T07:29:22.578Z,12.70
2022-09-17T07:33:27.063Z,12.80
2022-09-17T07:37:28.150Z,12.20
2022-09-17T07:41:29.107Z,13.20
2022-09-17T07:45:30.303Z,13.60
2022-09-17T07:49:31.322Z,12.70
2022-09-17T07:53:34.248Z,12.90
2022-09-17T07:57:35.399Z,12.90
2022-09-17T08:01:36.651Z,12.80
2022-09-17T08:05:37.803Z,12.80
2022-09-17T08:09:38.953Z,13.60
2022-09-17T08:13:40.244Z,13.30
2022-09-17T08:17:46.401Z,13.70
2022-09-17T08:21:47.568Z,13.20
2022-09-17T08:25:53.876Z,13.50
2022-09-17T08:29:54.875Z,14.00
2022-09-17T08:33:56.451Z,13.70
2022-09-17T08:37:57.827Z,13.30
2022-09-17T08:42:13.144Z,13.90
2022-09-17T08:46:14.382Z,13.70
2022-09-17T08:50:20.001Z,14.60
2022-09-17T08:54:37.126Z,14.30
2022-09-17T08:58:44.941Z,14.40
2022-09-17T09:03:06.320Z,13.40
2022-09-17T09:07:13.829Z,14.20
2022-09-17T09:11:19.290Z,14.00
2022-09-17T09:15:43.066Z,14.20
2022-09-17T09:19:45.985Z,14.40
2022-09-17T09:23:54.928Z,15.50
2022-09-17T09:28:05.513Z,14.70
2022-09-17T09:32:16.958Z,13.80
2022-09-17T09:36:21.387Z,13.40
2022-09-17T09:40:32.316Z,12.90
2022-09-17T09:44:33.924Z,13.70
2022-09-17T09:48:44.629Z,13.40
2022-09-17T09:52:52.003Z,12.80
2022-09-17T09:57:16.513Z,14.00
2022-09-17T10:01:20.211Z,13.50
2022-09-17T10:05:21.447Z,13.80
2022-09-17T10:09:22.634Z,13.00
2022-09-17T10:13:25.148Z,13.90
2022-09-17T10:17:26.798Z,12.50
2022-09-17T10:21:42.226Z,12.80
2022-09-17T10:25:43.655Z,13.20
2022-09-17T10:29:48.435Z,13.80
2022-09-17T10:33:58.509Z,14.30
2022-09-17T10:37:59.347Z,14.90
2022-09-17T10:42:07.044Z,14.90
2022-09-17T10:46:25.221Z,14.90
2022-09-17T10:50:29.618Z,13.70
2022-09-17T10:54:54.219Z,14.20
2022-09-17T10:59:08.001Z,13.30
2022-09-17T11:03:30.883Z,13.30
2022-09-17T11:07:44.047Z,13.90
2022-09-17T11:12:11.005Z,14.00
2022-09-17T11:16:18.798Z,15.10
2022-09-17T11:20:40.436Z,15.00
2022-09-17T11:24:59.891Z,14.30
2022-09-17T11:29:10.832Z,14.80
2022-09-17T11:33:35.293Z,13.80
2022-09-17T11:37:59.651Z,12.20
2022-09-17T11:42:01.711Z,13.30
2022-09-17T11:46:12.439Z,14.00
2022-09-17T11:50:23.192Z,15.50
2022-09-17T11:54:37.555Z,15.00
2022-09-17T11:58:54.326Z,14.10
2022-09-17T12:03:17.945Z,15.90
2022-09-17T12:07:22.738Z,15.80
2022-09-17T12:11:36.242Z,14.80
2022-09-17T12:15:41.011Z,14.80
2022-09-17T12:19:46.144Z,15.70
2022-09-17T12:23:53.602Z,15.90
2022-09-17T12:27:58.980Z,15.90
2022-09-17T12:32:15.895Z,16.80
2022-09-17T12:36:21.758Z,17.30
2022-09-17T12:40:47.309Z,17.40
2022-09-17T12:44:57.949Z,15.80
2022-09-17T12:49:05.252Z,15.70
2022-09-17T12:53:29.811Z,16.00
2022-09-17T12:57:53.089Z,17.00
2022-09-17T13:02:03.635Z,18.20
2022-09-17T13:06:23.701Z,16.70
2022-09-17T13:10:47.973Z,18.10
2022-09-17T13:15:04.274Z,18.70
2022-09-17T13:19:25.058Z,18.00
2022-09-17T13:23:36.424Z,17.20
2022-09-17T13:27:38.942Z,17.30
2022-09-17T13:31:44.026Z,16.70
2022-09-17T13:35:47.400Z,16.20
2022-09-17T13:39:51.312Z,15.10
2022-09-17T13:43:55.359Z,14.10
2022-09-17T13:48:10.968Z,14.10
2022-09-17T13:52:13.327Z,14.40
2022-09-17T13:56:45.439Z,11.30
2022-09-17T14:01:02.235Z,11.30
2022-09-17T14:05:25.113Z,11.20
2022-09-17T14:09:34.996Z,11.00
2022-09-17T14:13:41.888Z,10.70
2022-09-17T14:17:52.172Z,11.80
2022-09-17T14:22:09.125Z,12.50
2022-09-17T14:26:13.927Z,12.70
2022-09-17T14:30:29.542Z,14.70
2022-09-17T14:34:31.488Z,15.50
2022-09-17T14:38:44.011Z,15.10
2022-09-17T14:42:47.401Z,14.80
2022-09-17T14:46:58.902Z,14.80
2022-09-17T14:51:19.240Z,15.10
2022-09-17T14:55:26.772Z,15.50
2022-09-17T14:59:52.067Z,16.20
2022-09-17T15:04:16.538Z,14.80
2022-09-17T15:08:21.263Z,14.20
2022-09-17T15:12:26.106Z,14.20
2022-09-17T15:16:30.050Z,13.80
2022-09-17T15:20:32.308Z,13.70
2022-09-17T15:24:58.404Z,12.50
2022-09-17T15:29:00.646Z,12.70
2022-09-17T15:33:03.119Z,12.40
2022-09-17T15:37:18.354Z,11.40
2022-09-17T15:41:26.019Z,11.70
2022-09-17T15:45:31.038Z,12.40
2022-09-17T15:53:47.337Z,11.50
2022-09-17T15:57:48.173Z,10.60
2022-09-17T16:01:52.185Z,12.10
2022-09-17T16:05:56.905Z,12.00
2022-09-17T16:09:58.297Z,12.30
2022-09-17T16:14:00.479Z,12.40
2022-09-17T16:18:01.624Z,11.90
2022-09-17T16:22:02.700Z,11.90
2022-09-17T16:26:05.915Z,12.90
2022-09-17T16:30:08.872Z,12.60
2022-09-17T16:34:10.051Z,12.70
2022-09-17T16:38:12.327Z,11.90
2022-09-17T16:42:13.329Z,11.80
2022-09-17T16:46:14.451Z,12.30
2022-09-17T16:50:16.605Z,11.00
2022-09-17T16:54:17.695Z,11.60
2022-09-17T16:58:18.925Z,11.60
2022-09-17T17:02:19.865Z,11.80
2022-09-17T17:06:21.558Z,11.80
2022-09-17T17:10:25.715Z,10.90
2022-09-17T17:14:26.623Z,12.20
2022-09-17T17:18:27.685Z,11.60
2022-09-17T17:22:28.644Z,12.40
2022-09-17T17:26:29.785Z,12.00
2022-09-17T17:30:35.029Z,11.20
2022-09-17T17:34:34.740Z,11.80
2022-09-17T17:38:36.401Z,11.10
2022-09-17T17:42:40.042Z,11.10
2022-09-17T17:46:41.238Z,11.10
2022-09-17T17:50:42.239Z,11.70
2022-09-17T17:54:43.207Z,11.50
2022-09-17T17:58:44.132Z,11.50
2022-09-17T18:02:45.314Z,10.80
2022-09-17T18:06:47.445Z,10.80
2022-09-17T18:10:56.991Z,10.80
2022-09-17T18:14:58.040Z,11.20
2022-09-17T18:18:59.398Z,11.60
2022-09-17T18:23:00.285Z,11.70
2022-09-17T18:27:01.239Z,10.80
2022-09-17T18:31:07.548Z,11.10
2022-09-17T18:35:08.482Z,11.60
2022-09-17T18:43:15.760Z,11.90
2022-09-17T18:47:17.003Z,12.10
2022-09-17T18:51:17.985Z,12.10
2022-09-17T18:55:19.654Z,11.70
2022-09-17T18:59:20.625Z,10.70
2022-09-17T19:03:21.733Z,10.80
2022-09-17T19:07:22.797Z,10.90
2022-09-17T19:11:23.736Z,11.30
2022-09-17T19:15:24.904Z,11.70
2022-09-17T19:19:26.018Z,11.80
2022-09-17T19:23:27.916Z,10.90
2022-09-17T19:27:29.375Z,11.00
2022-09-17T19:31:30.433Z,10.70
2022-09-17T19:35:31.597Z,11.40
2022-09-17T19:39:33.641Z,10.70
2022-09-17T19:43:34.639Z,11.00
2022-09-17T19:47:35.779Z,11.60
2022-09-17T19:51:40.124Z,11.00
2022-09-17T19:55:42.245Z,10.60
2022-09-17T19:59:43.369Z,11.30
2022-09-17T20:03:45.331Z,11.10
2022-09-17T20:07:47.432Z,10.50
2022-09-17T20:11:48.430Z,10.80
2022-09-17T20:15:49.576Z,10.30
2022-09-17T20:19:50.899Z,11.00
2022-09-17T20:23:51.918Z,10.90
2022-09-17T20:27:53.424Z,10.90
2022-09-17T20:31:54.398Z,10.50
2022-09-17T20:36:04.204Z,11.00
2022-09-17T20:40:07.149Z,11.80
2022-09-17T20:44:08.339Z,11.50
2022-09-17T20:48:09.395Z,11.30
2022-09-17T20:52:10.314Z,11.70
2022-09-17T20:56:14.027Z,11.20
2022-09-17T21:00:17.294Z,10.70
2022-09-17T21:04:20.449Z,11.40
2022-09-17T21:08:21.717Z,11.10
2022-09-17T21:12:27.406Z,11.50
2022-09-17T21:16:26.249Z,11.10
2022-09-17T21:20:27.281Z,11.90
2022-09-17T21:24:28.238Z,11.60
2022-09-17T21:28:31.174Z,11.20
2022-09-17T21:32:32.239Z,11.20
2022-09-17T21:36:36.096Z,11.30
2022-09-17T21:40:37.106Z,10.80
2022-09-17T21:44:38.215Z,10.70
2022-09-17T21:48:47.522Z,10.50
2022-09-17T21:52:48.548Z,10.80
2022-09-17T21:56:49.840Z,10.90
2022-09-17T22:00:52.113Z,11.20
2022-09-17T22:09:05.344Z,10.60
2022-09-17T22:13:06.290Z,11.00
2022-09-17T22:17:07.380Z,10.40
2022-09-17T22:21:22.847Z,10.90
2022-09-17T22:25:23.926Z,10.40
2022-09-17T22:29:26.350Z,10.30
2022-09-17T22:33:34.129Z,10.90
2022-09-17T22:37:35.216Z,10.80
2022-09-17T22:41:40.763Z,10.80
2022-09-17T22:45:41.844Z,10.90
2022-09-17T22:49:43.256Z,10.80
2022-09-17T22:53:44.900Z,10.70
2022-09-17T22:57:45.966Z,10.80
2022-09-17T23:01:47.170Z,10.90
2022-09-17T23:05:49.006Z,10.90
2022-09-17T23:09:51.381Z,11.00
2022-09-17T23:13:56.550Z,10.70
2022-09-17T23:17:57.724Z,11.10
2022-09-17T23:21:58.733Z,10.80
2022-09-17T23:26:08.920Z,10.20
2022-09-17T23:30:11.068Z,10.80
2022-09-17T23:34:12.116Z,11.40
2022-09-17T23:38:13.526Z,10.50
2022-09-17T23:42:15.624Z,10.50
2022-09-17T23:46:18.413Z,11.00
2022-09-17T23:50:19.431Z,10.80
2022-09-17T23:54:20.481Z,11.10
2022-09-17T23:58:21.427Z,11.00
